This is the latest recevied weather packets stored in our database for station/object KE5AKC. If no packets are shown the sender has not sent any weather packets the latest 10 day(s).
| Time | Temp. | Humidity | Pressure | Rain* | Wind** | Luminosity | Snow |
|---|---|---|---|---|---|---|---|
| 1777571384 | 28.33° C | 71% | 1010.3 hPa | 0 mm | - | 324 W/m² | - |
| 1777571079 | 28.89° C | 70% | 1010 hPa | 0 mm | - | 404 W/m² | - |
| 1777570775 | 28.89° C | 67% | 1010 hPa | 0 mm | - | 416 W/m² | - |
| 1777570472 | 28.89° C | 69% | 1010 hPa | 0 mm | - | 978 W/m² | - |
| 1777570167 | 28.33° C | 72% | 1010 hPa | 0 mm | - | 910 W/m² | - |
| 1777569864 | 27.78° C | 73% | 1010 hPa | 0 mm | - | 938 W/m² | - |
| 1777569560 | 28.33° C | 73% | 1010 hPa | 0 mm | - | 394 W/m² | - |
| 1777569256 | 27.78° C | 74% | 1010.3 hPa | 0 mm | - | 370 W/m² | - |
| 1777568953 | 27.78° C | 74% | 1010 hPa | 0 mm | - | 581 W/m² | - |
| 1777568649 | 27.78° C | 75% | 1010 hPa | 0 mm | - | 560 W/m² | - |
| 1777568347 | 27.78° C | 75% | 1010.3 hPa | 0 mm | - | 719 W/m² | - |
| 1777568044 | 27.78° C | 74% | 1010.3 hPa | 0 mm | - | 425 W/m² | - |
| 1777567740 | 28.33° C | 72% | 1010.7 hPa | 0 mm | - | 281 W/m² | - |
| 1777567437 | 27.78° C | 73% | 1010.7 hPa | 0 mm | - | 423 W/m² | - |
| 1777567135 | 27.78° C | 74% | 1010.3 hPa | 0 mm | - | 471 W/m² | - |
| 1777566833 | 27.78° C | 74% | 1010.7 hPa | 0 mm | - | 649 W/m² | - |
| 1777566530 | 27.78° C | 74% | 1010.7 hPa | 0 mm | - | 411 W/m² | - |
| 1777566227 | 27.22° C | 76% | 1010.7 hPa | 0 mm | - | 569 W/m² | - |
| 1777565924 | 27.22° C | 75% | 1010.7 hPa | 0 mm | - | 391 W/m² | - |
| 1777565620 | 27.22° C | 77% | 1010.7 hPa | 0 mm | - | 913 W/m² | - |
| 1777565317 | 26.67° C | 78% | 1010.3 hPa | 0 mm | - | 707 W/m² | - |
| 1777565012 | 26.11° C | 80% | 1010.3 hPa | 0 mm | - | 581 W/m² | - |
| 1777564708 | 25.56° C | 82% | 1010.7 hPa | 0 mm | - | 555 W/m² | - |
| 1777564404 | 25.56° C | 82% | 1011 hPa | 0 mm | - | 320 W/m² | - |
| 1777564100 | 25.56° C | 82% | 1010.7 hPa | 0 mm | - | 273 W/m² | - |
* Rain latest hour (hover to see other rain measurements)
** Current wind speed in m/s (hover to see current wind gust speed)